createdAt,value
2018-02-14T00:00:30.780Z,17.52
2018-02-14T00:01:36.960Z,19.90
2018-02-14T00:02:43.193Z,16.80
2018-02-14T00:03:49.167Z,16.58
2018-02-14T00:04:55.395Z,19.48
2018-02-14T00:06:01.598Z,19.05
2018-02-14T00:07:08.734Z,20.30
2018-02-14T00:08:14.951Z,18.20
2018-02-14T00:09:21.144Z,19.45
2018-02-14T00:10:27.424Z,17.67
2018-02-14T00:11:33.572Z,22.83
2018-02-14T00:12:39.777Z,21.62
2018-02-14T00:13:46.043Z,18.37
2018-02-14T00:14:52.274Z,20.98
2018-02-14T00:15:58.466Z,18.73
2018-02-14T00:17:04.684Z,20.00
2018-02-14T00:18:14.169Z,18.00
2018-02-14T00:19:20.313Z,22.42
2018-02-14T00:20:26.513Z,19.02
2018-02-14T00:21:32.701Z,17.33
2018-02-14T00:22:38.943Z,20.85
2018-02-14T00:23:45.146Z,18.77
2018-02-14T00:24:51.350Z,18.80
2018-02-14T00:25:57.516Z,19.92
2018-02-14T00:27:04.625Z,20.42
2018-02-14T00:28:10.800Z,17.12
2018-02-14T00:29:17.101Z,17.87
2018-02-14T00:30:23.270Z,18.23
2018-02-14T00:31:29.466Z,18.37
2018-02-14T00:32:35.435Z,19.02
2018-02-14T00:33:41.585Z,25.83
2018-02-14T00:34:47.767Z,18.25
2018-02-14T00:35:53.897Z,18.12
2018-02-14T00:37:00.417Z,18.55
2018-02-14T00:38:07.354Z,19.73
2018-02-14T00:39:13.560Z,19.87
2018-02-14T00:40:19.796Z,19.85
2018-02-14T00:41:25.978Z,20.88
2018-02-14T00:42:32.166Z,21.30
2018-02-14T00:43:38.356Z,22.67
2018-02-14T00:44:44.555Z,21.77
2018-02-14T00:45:50.760Z,20.17
2018-02-14T00:46:57.041Z,19.02
2018-02-14T00:48:03.174Z,18.95
2018-02-14T00:49:09.364Z,18.60
2018-02-14T00:50:15.581Z,18.40
2018-02-14T00:51:21.555Z,20.90
2018-02-14T00:52:31.666Z,16.98
2018-02-14T00:53:37.839Z,20.37
2018-02-14T00:54:44.280Z,21.15
2018-02-14T00:55:51.829Z,17.73
2018-02-14T00:56:58.011Z,16.77
2018-02-14T00:58:04.237Z,17.02
2018-02-14T00:59:10.397Z,18.77
2018-02-14T01:00:17.285Z,18.87
2018-02-14T01:01:24.714Z,18.65
2018-02-14T01:02:33.992Z,16.73
2018-02-14T01:03:40.172Z,19.35
2018-02-14T01:04:46.044Z,20.33
2018-02-14T01:05:53.674Z,17.42
2018-02-14T01:07:01.749Z,18.37
2018-02-14T01:08:07.942Z,19.98
2018-02-14T01:09:15.086Z,17.70
2018-02-14T01:10:21.345Z,20.02
2018-02-14T01:11:27.484Z,18.60
2018-02-14T01:12:33.796Z,15.43
2018-02-14T01:13:39.975Z,18.70
2018-02-14T01:14:46.146Z,19.45
2018-02-14T01:15:52.292Z,19.83
2018-02-14T01:16:58.428Z,18.85
2018-02-14T01:18:04.373Z,19.50
2018-02-14T01:19:16.255Z,17.83
2018-02-14T01:20:27.908Z,21.52
2018-02-14T01:21:33.996Z,17.40
2018-02-14T01:22:40.249Z,19.23
2018-02-14T01:23:46.477Z,19.37
2018-02-14T01:24:52.649Z,19.70
2018-02-14T01:25:58.848Z,23.62
2018-02-14T01:27:04.781Z,18.37
2018-02-14T01:28:11.046Z,19.37
2018-02-14T01:29:17.225Z,17.10
2018-02-14T01:30:23.439Z,19.30
2018-02-14T01:31:29.630Z,21.52
2018-02-14T01:32:35.884Z,21.17
2018-02-14T01:33:42.138Z,20.90
2018-02-14T01:34:48.336Z,19.60
2018-02-14T01:35:54.495Z,17.60
2018-02-14T01:37:00.721Z,20.70
2018-02-14T01:38:06.929Z,19.67
2018-02-14T01:39:13.117Z,20.58
2018-02-14T01:40:19.319Z,19.10
2018-02-14T01:41:25.178Z,18.95
2018-02-14T01:42:31.414Z,21.12
2018-02-14T01:43:37.347Z,20.65
2018-02-14T01:44:43.514Z,23.20
2018-02-14T01:45:49.392Z,20.30
2018-02-14T01:46:55.636Z,19.58
2018-02-14T01:48:01.858Z,21.17
2018-02-14T01:49:08.056Z,20.92
2018-02-14T01:50:18.111Z,17.45
2018-02-14T01:51:23.983Z,18.67
2018-02-14T01:52:29.931Z,21.73
2018-02-14T01:53:35.855Z,18.70
2018-02-14T01:54:42.041Z,19.25
2018-02-14T01:55:48.210Z,22.92
2018-02-14T01:56:54.405Z,19.10
2018-02-14T01:58:00.589Z,18.85
2018-02-14T01:59:06.754Z,24.63
2018-02-14T02:00:12.614Z,19.00
2018-02-14T02:01:18.491Z,21.42
2018-02-14T02:02:24.689Z,17.98
2018-02-14T02:03:30.900Z,20.52
2018-02-14T02:04:37.130Z,22.05
2018-02-14T02:05:43.316Z,18.83
2018-02-14T02:06:49.496Z,22.55
2018-02-14T02:07:55.640Z,21.12
2018-02-14T02:10:14.181Z,22.23
2018-02-14T02:11:20.118Z,21.37
2018-02-14T02:12:26.243Z,20.90
2018-02-14T02:13:32.403Z,22.62
2018-02-14T02:14:38.678Z,20.05
2018-02-14T02:15:44.844Z,23.75
2018-02-14T02:16:50.982Z,21.12
2018-02-14T02:17:57.087Z,18.98
2018-02-14T02:19:02.991Z,17.77
2018-02-14T02:20:09.097Z,19.95
2018-02-14T02:21:15.270Z,22.92
2018-02-14T02:22:21.646Z,21.73
2018-02-14T02:23:27.806Z,23.23
2018-02-14T02:24:33.992Z,26.17
2018-02-14T02:25:40.396Z,22.15
2018-02-14T02:26:46.581Z,21.62
2018-02-14T02:27:52.591Z,23.17
2018-02-14T02:28:58.767Z,18.77
2018-02-14T02:30:04.271Z,19.10
2018-02-14T02:31:10.441Z,26.60
2018-02-14T02:32:16.878Z,21.98
2018-02-14T02:33:23.100Z,21.67
2018-02-14T02:34:29.495Z,22.02
2018-02-14T02:35:35.675Z,18.40
2018-02-14T02:36:41.858Z,22.17
2018-02-14T02:37:48.070Z,21.92
2018-02-14T02:38:54.224Z,19.67
2018-02-14T02:40:11.248Z,19.98
2018-02-14T02:41:17.171Z,23.27
2018-02-14T02:42:23.385Z,18.45
2018-02-14T02:43:29.598Z,20.98
2018-02-14T02:44:35.773Z,19.70
2018-02-14T02:45:41.973Z,20.98
2018-02-14T02:46:48.187Z,20.70
2018-02-14T02:47:54.392Z,22.73
2018-02-14T02:49:00.569Z,24.00
2018-02-14T02:50:06.779Z,20.20
2018-02-14T02:51:13.067Z,19.48
2018-02-14T02:52:18.972Z,20.92
2018-02-14T02:53:24.865Z,20.52
2018-02-14T02:54:31.203Z,22.65
2018-02-14T02:55:37.378Z,21.80
2018-02-14T02:56:43.545Z,25.00
2018-02-14T02:57:49.724Z,21.30
2018-02-14T02:58:55.950Z,20.12
2018-02-14T03:00:01.908Z,21.70
2018-02-14T03:01:07.763Z,19.95
2018-02-14T03:02:13.914Z,24.10
2018-02-14T03:03:20.072Z,20.25
2018-02-14T03:04:31.348Z,24.15
2018-02-14T03:05:37.557Z,24.25
2018-02-14T03:06:48.491Z,19.20
2018-02-14T03:07:54.664Z,27.08
2018-02-14T03:09:00.557Z,23.08
2018-02-14T03:10:06.473Z,21.40
2018-02-14T03:11:13.013Z,22.25
2018-02-14T03:12:20.282Z,22.58
2018-02-14T03:13:26.492Z,20.98
2018-02-14T03:14:32.684Z,21.02
2018-02-14T03:15:38.914Z,22.58
2018-02-14T03:16:45.668Z,23.65
2018-02-14T03:17:51.815Z,17.60
2018-02-14T03:18:57.767Z,20.58
2018-02-14T03:20:03.649Z,21.77
2018-02-14T03:21:09.818Z,19.65
2018-02-14T03:22:16.024Z,20.95
2018-02-14T03:23:22.241Z,20.55
2018-02-14T03:24:28.452Z,17.67
2018-02-14T03:25:34.690Z,19.60
2018-02-14T03:26:40.839Z,23.27
2018-02-14T03:27:47.418Z,20.67
2018-02-14T03:28:53.618Z,19.83
2018-02-14T03:29:59.831Z,22.23
2018-02-14T03:31:06.040Z,22.20
2018-02-14T03:32:12.229Z,21.10
2018-02-14T03:33:18.450Z,22.67
2018-02-14T03:34:24.469Z,22.23
2018-02-14T03:35:30.605Z,21.02
2018-02-14T03:36:36.496Z,16.77
2018-02-14T03:37:42.679Z,20.95
2018-02-14T03:38:48.635Z,22.80
2018-02-14T03:39:54.839Z,19.58
2018-02-14T03:41:06.270Z,21.37
2018-02-14T03:42:12.436Z,20.15
2018-02-14T03:43:18.440Z,18.40
2018-02-14T03:44:24.673Z,17.62
2018-02-14T03:45:31.236Z,22.87
2018-02-14T03:46:37.453Z,22.15
2018-02-14T03:47:43.694Z,25.80
2018-02-14T03:48:49.948Z,22.00
2018-02-14T03:49:55.828Z,21.40
2018-02-14T03:51:03.600Z,19.87
2018-02-14T03:52:09.793Z,21.98
2018-02-14T03:53:15.991Z,22.27
2018-02-14T03:54:21.843Z,20.40
2018-02-14T03:55:27.974Z,20.37
2018-02-14T03:56:33.851Z,20.65
2018-02-14T03:57:39.847Z,19.95
2018-02-14T03:58:46.136Z,21.12
2018-02-14T03:59:52.180Z,21.12
2018-02-14T04:00:58.376Z,20.17
2018-02-14T04:02:04.816Z,21.90
2018-02-14T04:03:11.132Z,18.62
2018-02-14T04:04:17.506Z,22.73
2018-02-14T04:05:23.716Z,23.33
2018-02-14T04:06:29.950Z,25.30
2018-02-14T04:07:36.269Z,22.77
2018-02-14T04:08:42.505Z,22.70
2018-02-14T04:09:48.663Z,21.85
2018-02-14T04:10:54.919Z,23.48
2018-02-14T04:12:02.063Z,22.05
2018-02-14T04:13:09.179Z,21.17
2018-02-14T04:14:15.396Z,19.08
2018-02-14T04:15:21.855Z,23.70
2018-02-14T04:16:28.072Z,21.98
2018-02-14T04:17:34.235Z,23.73
2018-02-14T04:18:40.422Z,23.45
2018-02-14T04:19:46.654Z,23.27
2018-02-14T04:20:53.216Z,21.48
2018-02-14T04:21:59.568Z,22.62
2018-02-14T04:23:05.884Z,22.37
2018-02-14T04:24:11.890Z,18.17
2018-02-14T04:25:18.726Z,22.70
2018-02-14T04:26:25.327Z,21.73
2018-02-14T04:27:32.360Z,20.92
2018-02-14T04:28:39.084Z,22.10
2018-02-14T04:29:46.115Z,26.10
2018-02-14T04:30:55.452Z,18.02
2018-02-14T04:32:01.802Z,21.37
2018-02-14T04:33:08.299Z,16.92
2018-02-14T04:34:14.534Z,21.27
2018-02-14T04:35:20.679Z,23.08
2018-02-14T04:36:27.144Z,24.52
2018-02-14T04:37:34.141Z,18.98
2018-02-14T04:38:41.307Z,22.48
2018-02-14T04:39:48.056Z,22.30
2018-02-14T04:40:56.139Z,20.48
2018-02-14T04:42:03.631Z,20.92
2018-02-14T04:43:11.159Z,23.73
2018-02-14T04:44:18.559Z,22.05
2018-02-14T04:45:26.167Z,26.33
2018-02-14T04:46:34.032Z,21.67
2018-02-14T04:47:40.927Z,22.80
2018-02-14T04:48:48.137Z,24.85
2018-02-14T04:49:55.534Z,22.65
2018-02-14T04:51:02.614Z,21.25
2018-02-14T04:52:09.752Z,28.77
2018-02-14T04:53:16.651Z,24.37
2018-02-14T04:54:23.882Z,22.92
2018-02-14T04:55:32.937Z,24.50
2018-02-14T04:56:40.620Z,23.62
2018-02-14T04:57:47.645Z,27.27
2018-02-14T04:58:55.262Z,23.60
2018-02-14T05:00:10.546Z,27.20
2018-02-14T05:01:18.440Z,20.98
2018-02-14T05:02:28.568Z,18.80
2018-02-14T05:03:37.438Z,26.80
2018-02-14T05:04:44.676Z,24.25
2018-02-14T05:05:51.968Z,24.12
2018-02-14T05:07:00.279Z,23.50
2018-02-14T05:08:08.196Z,22.25
2018-02-14T05:09:16.288Z,20.35
2018-02-14T05:10:24.418Z,25.30
2018-02-14T05:11:31.894Z,20.62
2018-02-14T05:12:40.006Z,21.10
2018-02-14T05:13:47.077Z,22.13
2018-02-14T05:14:54.335Z,26.33
2018-02-14T05:16:01.488Z,21.40
2018-02-14T05:17:08.714Z,23.33
2018-02-14T05:18:15.908Z,21.83
2018-02-14T05:19:23.387Z,22.17
2018-02-14T05:20:30.685Z,24.45
2018-02-14T05:21:38.463Z,23.55
2018-02-14T05:22:45.429Z,21.60
2018-02-14T05:23:52.327Z,22.20
2018-02-14T05:25:00.369Z,18.92
2018-02-14T05:26:07.623Z,20.88
2018-02-14T05:27:15.827Z,25.58
2018-02-14T05:28:24.515Z,27.45
2018-02-14T05:29:31.673Z,19.83
2018-02-14T05:30:38.687Z,22.55
2018-02-14T05:31:45.800Z,23.33
2018-02-14T05:32:54.667Z,20.27
2018-02-14T05:34:04.463Z,26.15
2018-02-14T05:35:12.081Z,25.42
2018-02-14T05:36:19.012Z,24.75
2018-02-14T05:37:26.447Z,25.05
2018-02-14T05:38:34.897Z,24.35
2018-02-14T05:39:42.112Z,29.65
2018-02-14T05:40:49.805Z,29.58
2018-02-14T05:41:59.530Z,28.67
2018-02-14T05:43:08.828Z,26.58
2018-02-14T05:44:15.634Z,27.60
2018-02-14T05:45:23.371Z,25.25
2018-02-14T05:46:30.586Z,25.83
2018-02-14T05:47:38.357Z,25.08
2018-02-14T05:48:46.327Z,23.12
2018-02-14T05:49:53.445Z,24.98
2018-02-14T05:51:00.833Z,28.55
2018-02-14T05:52:07.942Z,26.42
2018-02-14T05:53:15.363Z,30.23
2018-02-14T05:54:22.997Z,24.12
2018-02-14T05:55:30.514Z,25.58
2018-02-14T05:56:38.019Z,22.35
2018-02-14T05:57:44.211Z,29.15
2018-02-14T05:58:50.402Z,26.15
2018-02-14T05:59:56.618Z,27.00
2018-02-14T06:01:02.987Z,23.38
2018-02-14T06:02:09.126Z,27.37
2018-02-14T06:03:15.376Z,26.20
2018-02-14T06:04:21.604Z,25.15
2018-02-14T06:05:27.819Z,28.73
2018-02-14T06:06:33.542Z,24.90
2018-02-14T06:07:39.703Z,23.05
2018-02-14T06:08:45.934Z,22.37
2018-02-14T06:09:52.145Z,28.67
2018-02-14T06:10:58.335Z,23.65
2018-02-14T06:12:04.647Z,24.05
2018-02-14T06:13:10.877Z,24.17
2018-02-14T06:14:17.149Z,25.73
2018-02-14T06:15:23.584Z,23.20
2018-02-14T06:16:29.795Z,25.60
2018-02-14T06:17:35.975Z,28.30
2018-02-14T06:18:42.202Z,21.42
2018-02-14T06:19:48.371Z,26.73
2018-02-14T06:20:54.556Z,25.37
2018-02-14T06:22:00.732Z,29.52
2018-02-14T06:23:06.932Z,30.85
2018-02-14T06:24:13.116Z,25.95
2018-02-14T06:25:19.312Z,24.50
2018-02-14T06:26:25.519Z,27.08
2018-02-14T06:27:31.912Z,21.65
2018-02-14T06:28:38.106Z,22.50
2018-02-14T06:29:44.350Z,26.80
2018-02-14T06:30:50.512Z,34.00
2018-02-14T06:32:01.791Z,27.90
2018-02-14T06:33:07.980Z,24.70
2018-02-14T06:34:14.197Z,23.55
2018-02-14T06:35:20.360Z,26.45
2018-02-14T06:36:26.496Z,22.08
2018-02-14T06:37:32.699Z,21.27
2018-02-14T06:38:38.963Z,24.50
2018-02-14T06:39:45.166Z,22.95
2018-02-14T06:40:51.387Z,21.40
2018-02-14T06:41:57.377Z,25.92
2018-02-14T06:43:03.333Z,22.67
2018-02-14T06:44:09.508Z,22.95
2018-02-14T06:45:15.676Z,24.25
2018-02-14T06:46:26.929Z,22.75
2018-02-14T06:47:33.100Z,26.05
2018-02-14T06:48:39.292Z,26.90
2018-02-14T06:49:45.504Z,24.85
2018-02-14T06:50:52.071Z,23.17
2018-02-14T06:51:58.961Z,24.02
2018-02-14T06:53:05.288Z,23.15
2018-02-14T06:54:11.928Z,26.52
2018-02-14T06:55:18.087Z,26.73
2018-02-14T06:56:24.222Z,29.10
2018-02-14T06:57:50.344Z,24.17
2018-02-14T06:58:56.461Z,24.65
2018-02-14T07:00:03.712Z,28.83
2018-02-14T07:01:09.960Z,21.67
2018-02-14T07:02:17.265Z,28.48
2018-02-14T07:03:23.472Z,28.52
2018-02-14T07:04:29.687Z,27.00
2018-02-14T07:05:35.924Z,22.98
2018-02-14T07:06:42.080Z,22.83
2018-02-14T07:07:48.237Z,24.42
2018-02-14T07:08:54.056Z,26.73
2018-02-14T07:10:00.383Z,25.00
2018-02-14T07:11:06.656Z,27.67
2018-02-14T07:12:12.592Z,26.95
2018-02-14T07:13:18.790Z,34.10
2018-02-14T07:14:24.968Z,24.27
2018-02-14T07:15:31.149Z,26.40
2018-02-14T07:16:37.447Z,28.60
2018-02-14T07:17:43.631Z,25.73
2018-02-14T07:18:49.880Z,29.25
2018-02-14T07:19:56.163Z,27.73
2018-02-14T07:21:02.308Z,27.10
2018-02-14T07:22:08.534Z,21.65
2018-02-14T07:23:14.769Z,28.55
2018-02-14T07:24:21.014Z,27.75
2018-02-14T07:25:27.168Z,30.12
2018-02-14T07:26:33.415Z,26.27
2018-02-14T07:27:39.618Z,29.70
2018-02-14T07:28:45.856Z,31.37
2018-02-14T07:29:52.005Z,27.98
2018-02-14T07:30:58.324Z,28.27
2018-02-14T07:32:04.550Z,30.65
2018-02-14T07:33:18.235Z,26.87
2018-02-14T07:34:26.967Z,27.50
2018-02-14T07:35:33.260Z,25.20
2018-02-14T07:36:39.476Z,31.33
2018-02-14T07:37:54.024Z,29.85
2018-02-14T07:38:59.860Z,25.98
2018-02-14T07:40:07.251Z,29.30
2018-02-14T07:41:21.248Z,29.55
2018-02-14T07:42:27.485Z,31.90
2018-02-14T07:43:33.691Z,25.40
2018-02-14T07:44:43.064Z,28.15
2018-02-14T07:45:48.871Z,34.75
2018-02-14T07:46:55.082Z,30.20
2018-02-14T07:48:01.270Z,27.55
2018-02-14T07:49:07.413Z,32.50
2018-02-14T07:50:13.205Z,33.63
2018-02-14T07:51:19.364Z,32.45
2018-02-14T07:52:25.573Z,34.13
2018-02-14T07:53:31.732Z,36.25
2018-02-14T07:54:37.900Z,36.47
2018-02-14T07:55:44.014Z,35.15
2018-02-14T07:56:50.216Z,45.38
2018-02-14T07:57:56.416Z,45.72
2018-02-14T07:59:02.672Z,49.20
2018-02-14T08:00:08.852Z,53.47
2018-02-14T08:01:14.991Z,51.53
2018-02-14T08:02:21.523Z,49.10
2018-02-14T08:03:27.659Z,55.95
2018-02-14T08:04:34.036Z,46.37
2018-02-14T08:05:40.151Z,54.55
2018-02-14T08:06:46.336Z,49.45
2018-02-14T08:07:52.260Z,44.63
2018-02-14T08:08:58.154Z,46.83
2018-02-14T08:10:04.411Z,44.88
2018-02-14T08:11:10.570Z,38.55
2018-02-14T08:12:19.592Z,38.53
2018-02-14T08:13:25.541Z,35.35
2018-02-14T08:14:31.742Z,33.15
2018-02-14T08:15:37.957Z,34.45
2018-02-14T08:16:44.227Z,86.50
2018-02-14T08:17:50.403Z,102.30
2018-02-14T08:18:56.596Z,109.05
2018-02-14T08:20:02.752Z,113.20
2018-02-14T08:21:08.650Z,108.90
2018-02-14T08:22:14.877Z,95.30
2018-02-14T08:23:21.020Z,70.90
2018-02-14T08:24:27.163Z,57.03
2018-02-14T08:25:39.153Z,45.92
2018-02-14T08:26:50.036Z,60.58
2018-02-14T08:27:56.242Z,58.35
2018-02-14T08:29:02.403Z,55.42
2018-02-14T08:30:08.583Z,84.65
2018-02-14T08:31:14.484Z,80.22
2018-02-14T08:32:20.676Z,92.53
2018-02-14T08:33:26.853Z,46.88
2018-02-14T08:34:33.206Z,40.75
2018-02-14T08:35:39.433Z,38.95
2018-02-14T08:36:45.574Z,32.53
2018-02-14T08:37:52.057Z,36.75
2018-02-14T08:38:58.223Z,37.60
2018-02-14T08:40:04.090Z,34.50
2018-02-14T08:41:10.269Z,51.17
2018-02-14T08:42:16.467Z,40.90
2018-02-14T08:43:22.682Z,32.45
2018-02-14T08:44:28.825Z,37.20
2018-02-14T08:45:34.990Z,43.40
2018-02-14T08:46:40.886Z,38.05
2018-02-14T08:47:47.062Z,32.95
2018-02-14T08:48:53.293Z,42.38
2018-02-14T08:49:59.609Z,59.20
2018-02-14T08:51:05.799Z,48.22
2018-02-14T08:52:11.964Z,35.30
2018-02-14T08:53:18.172Z,32.42
2018-02-14T08:54:24.648Z,38.78
2018-02-14T08:55:30.844Z,39.20
2018-02-14T08:56:37.046Z,36.88
2018-02-14T08:57:43.211Z,31.77
2018-02-14T08:58:49.415Z,35.78
2018-02-14T08:59:55.574Z,32.58
2018-02-14T09:01:02.932Z,34.53
2018-02-14T09:02:14.193Z,36.53
2018-02-14T09:03:20.340Z,34.38
2018-02-14T09:04:26.524Z,38.58
2018-02-14T09:05:32.724Z,35.75
2018-02-14T09:06:38.893Z,34.45
2018-02-14T09:07:48.001Z,33.53
2018-02-14T09:08:54.159Z,40.33
2018-02-14T09:10:00.284Z,31.05
2018-02-14T09:11:06.489Z,33.65
2018-02-14T09:12:12.694Z,33.60
2018-02-14T09:13:19.908Z,31.08
2018-02-14T09:14:26.116Z,32.33
2018-02-14T09:15:32.308Z,30.40
2018-02-14T09:16:38.279Z,29.77
2018-02-14T09:17:44.462Z,30.55
2018-02-14T09:18:50.592Z,29.65
2018-02-14T09:19:56.813Z,33.67
2018-02-14T09:21:03.048Z,31.65
2018-02-14T09:22:09.936Z,29.00
2018-02-14T09:23:16.157Z,26.95
2018-02-14T09:24:22.385Z,29.45
2018-02-14T09:25:28.514Z,27.60
2018-02-14T09:26:34.656Z,27.52
2018-02-14T09:27:40.776Z,29.25
2018-02-14T09:28:46.934Z,29.65
2018-02-14T09:29:53.136Z,28.20
2018-02-14T09:30:59.259Z,30.00
2018-02-14T09:32:05.439Z,26.85
2018-02-14T09:33:11.776Z,32.50
2018-02-14T09:34:18.299Z,29.17
2018-02-14T09:35:24.509Z,25.42
2018-02-14T09:36:30.639Z,25.98
2018-02-14T09:37:36.728Z,29.73
2018-02-14T09:38:42.616Z,26.60
2018-02-14T09:39:48.756Z,27.33
2018-02-14T09:40:54.942Z,34.90
2018-02-14T09:42:01.139Z,27.98
2018-02-14T09:43:07.356Z,30.08
2018-02-14T09:44:13.553Z,28.85
2018-02-14T09:45:19.724Z,29.08
2018-02-14T09:46:25.880Z,28.08
2018-02-14T09:47:32.067Z,32.00
2018-02-14T09:48:38.032Z,29.10
2018-02-14T09:49:44.113Z,29.85
2018-02-14T09:50:50.257Z,28.75
2018-02-14T09:51:56.439Z,27.37
2018-02-14T09:53:02.386Z,27.33
2018-02-14T09:54:08.894Z,32.75
2018-02-14T09:55:15.068Z,28.20
2018-02-14T09:56:21.252Z,27.08
2018-02-14T09:57:27.380Z,32.35
2018-02-14T09:58:33.597Z,29.12
2018-02-14T09:59:46.062Z,26.52
2018-02-14T10:00:52.223Z,28.60
2018-02-14T10:01:58.426Z,29.27
2018-02-14T10:03:04.595Z,27.73
2018-02-14T10:04:10.766Z,32.85
2018-02-14T10:05:16.958Z,29.63
2018-02-14T10:06:23.560Z,31.42
2018-02-14T10:07:29.860Z,27.83
2018-02-14T10:08:35.985Z,26.60
2018-02-14T10:09:42.129Z,29.37
2018-02-14T10:10:48.287Z,26.23
2018-02-14T10:11:54.403Z,28.67
2018-02-14T10:13:00.582Z,29.92
2018-02-14T10:14:06.768Z,28.38
2018-02-14T10:15:12.890Z,27.27
2018-02-14T10:16:19.016Z,27.85
2018-02-14T10:17:25.185Z,25.08
2018-02-14T10:18:31.343Z,30.90
2018-02-14T10:19:37.467Z,26.27
2018-02-14T10:20:43.648Z,26.95
2018-02-14T10:21:49.845Z,29.00
2018-02-14T10:22:56.388Z,25.90
2018-02-14T10:24:03.057Z,28.23
2018-02-14T10:25:09.215Z,31.73
2018-02-14T10:26:15.440Z,33.65
2018-02-14T10:27:21.692Z,27.20
2018-02-14T10:28:27.813Z,29.70
2018-02-14T10:29:34.344Z,28.83
2018-02-14T10:30:40.468Z,27.10
2018-02-14T10:31:46.651Z,31.42
2018-02-14T10:32:52.785Z,27.30
2018-02-14T10:33:58.935Z,31.48
2018-02-14T10:35:05.110Z,27.67
2018-02-14T10:36:11.433Z,28.42
2018-02-14T10:37:17.586Z,28.83
2018-02-14T10:38:23.758Z,31.10
2018-02-14T10:39:29.936Z,32.78
2018-02-14T10:40:36.121Z,30.77
2018-02-14T10:41:42.283Z,33.30
2018-02-14T10:42:48.470Z,31.95
2018-02-14T10:43:54.684Z,31.30
2018-02-14T10:45:00.908Z,29.20
2018-02-14T10:46:08.018Z,32.17
2018-02-14T10:47:14.217Z,29.65
2018-02-14T10:48:20.024Z,27.75
2018-02-14T10:49:26.229Z,27.98
2018-02-14T10:50:32.604Z,29.17
2018-02-14T10:51:38.793Z,32.92
2018-02-14T10:52:45.340Z,27.80
2018-02-14T10:53:51.529Z,29.95
2018-02-14T10:54:57.678Z,29.15
2018-02-14T10:56:03.832Z,31.08
2018-02-14T10:57:10.109Z,30.02
2018-02-14T10:58:16.406Z,33.08
2018-02-14T10:59:22.593Z,29.85
2018-02-14T11:00:34.291Z,28.30
2018-02-14T11:01:45.879Z,28.65
2018-02-14T11:02:57.507Z,27.67
2018-02-14T11:04:09.186Z,24.85
2018-02-14T11:05:20.831Z,30.05
2018-02-14T11:06:32.436Z,27.73
2018-02-14T11:07:38.583Z,29.08
2018-02-14T11:08:44.826Z,24.87
2018-02-14T11:09:50.967Z,26.37
2018-02-14T11:10:57.148Z,26.55
2018-02-14T11:12:03.284Z,24.40
2018-02-14T11:13:09.456Z,26.00
2018-02-14T11:14:15.623Z,24.30
2018-02-14T11:15:21.825Z,28.80
2018-02-14T11:16:32.855Z,27.98
2018-02-14T11:17:39.043Z,27.15
2018-02-14T11:18:45.185Z,30.12
2018-02-14T11:19:51.293Z,27.35
2018-02-14T11:20:57.508Z,27.27
2018-02-14T11:22:03.941Z,23.20
2018-02-14T11:23:10.059Z,26.25
2018-02-14T11:24:16.278Z,25.95
2018-02-14T11:25:22.419Z,24.63
2018-02-14T11:26:28.637Z,25.88
2018-02-14T11:27:34.956Z,30.27
2018-02-14T11:28:41.432Z,29.20
2018-02-14T11:29:47.644Z,25.08
2018-02-14T11:30:53.815Z,24.45
2018-02-14T11:31:59.969Z,27.62
2018-02-14T11:33:06.120Z,23.45
2018-02-14T11:34:12.273Z,24.67
2018-02-14T11:35:18.461Z,26.45
2018-02-14T11:36:24.674Z,25.08
2018-02-14T11:37:30.814Z,24.48
2018-02-14T11:38:36.777Z,28.05
2018-02-14T11:39:42.941Z,24.90
2018-02-14T11:40:49.146Z,23.10
2018-02-14T11:41:55.321Z,27.85
2018-02-14T11:43:01.483Z,25.85
2018-02-14T11:44:07.686Z,26.00
2018-02-14T11:45:13.828Z,27.23
2018-02-14T11:46:20.017Z,23.40
2018-02-14T11:47:26.174Z,25.70
2018-02-14T11:48:32.394Z,26.37
2018-02-14T11:49:38.574Z,29.12
2018-02-14T11:50:44.752Z,28.75
2018-02-14T11:51:50.955Z,22.73
2018-02-14T11:52:57.123Z,29.83
2018-02-14T11:54:03.304Z,25.92
2018-02-14T11:55:09.479Z,27.52
2018-02-14T11:56:15.662Z,25.55
2018-02-14T11:57:21.849Z,24.60
2018-02-14T11:58:28.016Z,22.87
2018-02-14T11:59:34.228Z,26.77
2018-02-14T12:00:40.411Z,23.38
2018-02-14T12:01:46.617Z,25.52
2018-02-14T12:02:52.818Z,25.55
2018-02-14T12:03:59.026Z,21.95
2018-02-14T12:05:05.391Z,21.75
2018-02-14T12:06:11.595Z,21.58
2018-02-14T12:07:17.838Z,23.10
2018-02-14T12:08:24.015Z,20.48
2018-02-14T12:09:30.432Z,20.88
2018-02-14T12:10:36.595Z,17.75
2018-02-14T12:11:42.708Z,22.05
2018-02-14T12:12:48.832Z,21.35
2018-02-14T12:13:55.295Z,22.33
2018-02-14T12:15:05.474Z,21.77
2018-02-14T12:16:11.608Z,21.20
2018-02-14T12:17:17.848Z,21.55
2018-02-14T12:18:24.000Z,22.52
2018-02-14T12:19:30.173Z,24.45
2018-02-14T12:20:36.371Z,28.38
2018-02-14T12:21:42.513Z,23.83
2018-02-14T12:22:48.653Z,22.62
2018-02-14T12:23:54.783Z,25.40
2018-02-14T12:25:00.983Z,23.27
2018-02-14T12:26:07.301Z,23.23
2018-02-14T12:27:13.491Z,30.10
2018-02-14T12:28:19.689Z,23.45
2018-02-14T12:29:25.882Z,25.83
2018-02-14T12:30:32.052Z,26.55
2018-02-14T12:31:38.857Z,23.58
2018-02-14T12:32:45.029Z,22.85
2018-02-14T12:33:51.172Z,27.62
2018-02-14T12:34:57.193Z,20.27
2018-02-14T12:36:03.362Z,22.92
2018-02-14T12:37:09.546Z,23.00
2018-02-14T12:38:15.727Z,23.12
2018-02-14T12:39:21.931Z,24.35
2018-02-14T12:40:28.052Z,28.23
2018-02-14T12:41:34.233Z,21.98
2018-02-14T12:42:40.041Z,23.85
2018-02-14T12:43:46.175Z,26.98
2018-02-14T12:44:52.401Z,23.48
2018-02-14T12:45:58.553Z,27.50
2018-02-14T12:47:04.758Z,26.05
2018-02-14T12:48:10.892Z,28.12
2018-02-14T12:49:17.067Z,23.00
2018-02-14T12:50:23.257Z,22.73
2018-02-14T12:51:29.419Z,30.08
2018-02-14T12:52:35.552Z,27.17
2018-02-14T12:53:41.719Z,24.17
2018-02-14T12:54:47.886Z,25.17
2018-02-14T12:55:54.030Z,26.55
2018-02-14T12:57:00.209Z,26.40
2018-02-14T12:58:06.421Z,27.02
2018-02-14T12:59:12.617Z,26.20
2018-02-14T13:00:18.906Z,26.40
2018-02-14T13:01:25.207Z,24.20
2018-02-14T13:02:31.357Z,23.80
2018-02-14T13:03:37.542Z,25.73
2018-02-14T13:04:43.686Z,28.33
2018-02-14T13:05:49.829Z,26.12
2018-02-14T13:06:56.040Z,26.48
2018-02-14T13:08:02.245Z,24.98
2018-02-14T13:09:08.450Z,24.15
2018-02-14T13:10:16.147Z,28.08
2018-02-14T13:11:22.292Z,25.05
2018-02-14T13:12:28.521Z,25.52
2018-02-14T13:13:34.686Z,25.27
2018-02-14T13:14:40.883Z,28.45
2018-02-14T13:15:47.044Z,26.67
2018-02-14T13:16:53.175Z,24.83
2018-02-14T13:17:59.420Z,31.27
2018-02-14T13:19:05.496Z,25.40
2018-02-14T13:20:11.680Z,25.35
2018-02-14T13:21:17.825Z,22.40
2018-02-14T13:22:23.974Z,26.23
2018-02-14T13:23:30.172Z,27.17
2018-02-14T13:24:36.216Z,25.52
2018-02-14T13:25:42.320Z,26.50
2018-02-14T13:26:48.451Z,24.80
2018-02-14T13:27:54.685Z,28.27
2018-02-14T13:29:00.895Z,19.00
2018-02-14T13:30:07.152Z,19.67
2018-02-14T13:31:13.351Z,25.45
2018-02-14T13:32:19.500Z,23.83
2018-02-14T13:33:25.680Z,22.75
2018-02-14T13:34:31.892Z,21.95
2018-02-14T13:35:38.120Z,26.20
2018-02-14T13:36:44.353Z,23.52
2018-02-14T13:37:50.505Z,21.87
2018-02-14T13:38:56.756Z,21.45
2018-02-14T13:40:02.908Z,20.35
2018-02-14T13:41:09.052Z,24.63
2018-02-14T13:42:15.278Z,21.25
2018-02-14T13:43:21.458Z,25.95
2018-02-14T13:44:27.686Z,24.87
2018-02-14T13:45:33.919Z,23.12
2018-02-14T13:46:40.487Z,21.60
2018-02-14T13:47:46.696Z,22.50
2018-02-14T13:48:52.852Z,21.45
2018-02-14T13:49:59.051Z,20.35
2018-02-14T13:51:05.252Z,23.48
2018-02-14T13:52:11.430Z,23.12
2018-02-14T13:53:17.594Z,21.62
2018-02-14T13:54:23.749Z,23.55
2018-02-14T13:55:29.961Z,24.65
2018-02-14T13:56:36.135Z,23.83
2018-02-14T13:57:42.349Z,26.40
2018-02-14T13:58:48.847Z,18.85
2018-02-14T13:59:54.995Z,19.73
2018-02-14T14:01:01.288Z,17.60
2018-02-14T14:02:07.466Z,20.58
2018-02-14T14:03:13.628Z,22.30
2018-02-14T14:04:19.847Z,19.23
2018-02-14T14:05:26.027Z,19.73
2018-02-14T14:06:32.559Z,17.87
2018-02-14T14:07:38.868Z,20.77
2018-02-14T14:08:45.046Z,23.33
2018-02-14T14:09:51.206Z,25.45
2018-02-14T14:10:57.375Z,23.15
2018-02-14T14:12:03.605Z,18.62
2018-02-14T14:13:09.761Z,17.87
2018-02-14T14:14:15.945Z,19.85
2018-02-14T14:15:22.143Z,17.33
2018-02-14T14:16:28.315Z,20.35
2018-02-14T14:17:34.452Z,19.42
2018-02-14T14:18:40.628Z,20.20